sensor_id;sensor_type;location;lat;lon;timestamp;pressure;altitude;pressure_sealevel;temperature;humidity
1726;BME280;41776;48.260;8.928;2022-07-17T00:01:34;71919.78;;;-145.69;77.20
1726;BME280;41776;48.260;8.928;2022-07-17T00:04:02;71913.81;;;-145.69;76.93
1726;BME280;41776;48.260;8.928;2022-07-17T00:06:28;71895.91;;;-145.69;75.84
1726;BME280;41776;48.260;8.928;2022-07-17T00:08:54;71913.81;;;-145.69;77.30
1726;BME280;41776;48.260;8.928;2022-07-17T00:11:21;71925.75;;;-145.69;77.35
1726;BME280;41776;48.260;8.928;2022-07-17T00:13:47;71933.72;;;-145.69;77.89
1726;BME280;41776;48.260;8.928;2022-07-17T00:16:14;71919.78;;;-145.69;76.87
1726;BME280;41776;48.260;8.928;2022-07-17T00:18:41;71923.78;;;-145.69;78.50
1726;BME280;41776;48.260;8.928;2022-07-17T00:21:08;71923.78;;;-145.69;78.91
1726;BME280;41776;48.260;8.928;2022-07-17T00:23:35;71929.75;;;-145.69;78.21
1726;BME280;41776;48.260;8.928;2022-07-17T00:26:01;71933.72;;;-145.69;78.30
1726;BME280;41776;48.260;8.928;2022-07-17T00:28:28;71933.72;;;-145.69;78.54
1726;BME280;41776;48.260;8.928;2022-07-17T00:30:54;71947.66;;;-145.69;78.93
1726;BME280;41776;48.260;8.928;2022-07-17T00:33:21;71953.63;;;-145.69;79.45
1726;BME280;41776;48.260;8.928;2022-07-17T00:35:47;71955.63;;;-145.69;79.66
1726;BME280;41776;48.260;8.928;2022-07-17T00:38:15;71971.53;;;-145.69;80.04
1726;BME280;41776;48.260;8.928;2022-07-17T00:40:42;71955.63;;;-145.69;79.56
1726;BME280;41776;48.260;8.928;2022-07-17T00:43:08;71953.63;;;-145.69;79.60
1726;BME280;41776;48.260;8.928;2022-07-17T00:45:34;71955.63;;;-145.69;78.35
1726;BME280;41776;48.260;8.928;2022-07-17T00:48:03;71971.53;;;-145.69;80.43
1726;BME280;41776;48.260;8.928;2022-07-17T00:50:32;71969.53;;;-145.69;81.01
1726;BME280;41776;48.260;8.928;2022-07-17T00:52:59;71983.47;;;-145.69;81.18
1726;BME280;41776;48.260;8.928;2022-07-17T00:55:27;71999.41;;;-145.69;81.11
1726;BME280;41776;48.260;8.928;2022-07-17T00:57:55;72021.28;;;-145.69;85.73
1726;BME280;41776;48.260;8.928;2022-07-17T01:00:22;72039.19;;;-145.69;85.80
1726;BME280;41776;48.260;8.928;2022-07-17T01:02:50;72047.16;;;-145.69;85.99
1726;BME280;41776;48.260;8.928;2022-07-17T01:05:18;72047.16;;;-145.69;87.54
1726;BME280;41776;48.260;8.928;2022-07-17T01:07:45;72051.16;;;-145.69;88.55
1726;BME280;41776;48.260;8.928;2022-07-17T01:10:12;72043.19;;;-145.69;88.47
1726;BME280;41776;48.260;8.928;2022-07-17T01:12:40;72051.16;;;-145.69;87.92
1726;BME280;41776;48.260;8.928;2022-07-17T01:15:08;72045.16;;;-145.69;88.23
1726;BME280;41776;48.260;8.928;2022-07-17T01:17:36;72049.16;;;-145.69;89.17
1726;BME280;41776;48.260;8.928;2022-07-17T01:20:03;72061.09;;;-145.69;90.46
1726;BME280;41776;48.260;8.928;2022-07-17T01:22:32;72055.13;;;-145.69;89.53
1726;BME280;41776;48.260;8.928;2022-07-17T01:24:58;72043.19;;;-145.69;87.95
1726;BME280;41776;48.260;8.928;2022-07-17T01:27:26;72065.06;;;-145.69;90.79
1726;BME280;41776;48.260;8.928;2022-07-17T01:29:56;72084.97;;;-145.69;92.68
1726;BME280;41776;48.260;8.928;2022-07-17T01:32:30;72090.94;;;-145.69;92.57
1726;BME280;41776;48.260;8.928;2022-07-17T01:34:57;72090.94;;;-145.69;91.64
1726;BME280;41776;48.260;8.928;2022-07-17T01:37:23;72102.88;;;-145.69;92.76
1726;BME280;41776;48.260;8.928;2022-07-17T01:39:51;72096.91;;;-145.69;92.95
1726;BME280;41776;48.260;8.928;2022-07-17T01:42:22;72120.81;;;-145.69;94.52
1726;BME280;41776;48.260;8.928;2022-07-17T01:44:48;72122.78;;;-145.69;96.77
1726;BME280;41776;48.260;8.928;2022-07-17T01:47:16;72138.72;;;-145.69;98.50
1726;BME280;41776;48.260;8.928;2022-07-17T01:49:44;72144.69;;;-145.69;98.25
1726;BME280;41776;48.260;8.928;2022-07-17T01:52:11;72144.69;;;-145.69;96.95
1726;BME280;41776;48.260;8.928;2022-07-17T01:54:37;72140.69;;;-145.69;96.26
1726;BME280;41776;48.260;8.928;2022-07-17T01:57:05;72148.66;;;-145.69;97.55
1726;BME280;41776;48.260;8.928;2022-07-17T01:59:32;72148.66;;;-145.69;97.68
1726;BME280;41776;48.260;8.928;2022-07-17T02:01:58;72138.72;;;-145.69;96.22
1726;BME280;41776;48.260;8.928;2022-07-17T02:04:25;72138.72;;;-145.69;96.04
1726;BME280;41776;48.260;8.928;2022-07-17T02:06:53;72138.72;;;-145.69;94.76
1726;BME280;41776;48.260;8.928;2022-07-17T02:09:19;72118.81;;;-145.69;92.56
1726;BME280;41776;48.260;8.928;2022-07-17T02:11:46;72098.91;;;-145.69;92.93
1726;BME280;41776;48.260;8.928;2022-07-17T02:14:14;72114.81;;;-145.69;93.86
1726;BME280;41776;48.260;8.928;2022-07-17T02:16:40;72126.78;;;-145.69;95.80
1726;BME280;41776;48.260;8.928;2022-07-17T02:19:06;72114.81;;;-145.69;96.28
1726;BME280;41776;48.260;8.928;2022-07-17T02:21:33;72112.84;;;-145.69;94.46
1726;BME280;41776;48.260;8.928;2022-07-17T02:23:59;72104.88;;;-145.69;94.60
1726;BME280;41776;48.260;8.928;2022-07-17T02:26:26;72110.84;;;-145.69;96.53
1726;BME280;41776;48.260;8.928;2022-07-17T02:28:52;72116.81;;;-145.69;95.95
1726;BME280;41776;48.260;8.928;2022-07-17T02:31:21;72130.75;;;-145.69;97.22
1726;BME280;41776;48.260;8.928;2022-07-17T02:33:47;72126.78;;;-145.69;96.04
1726;BME280;41776;48.260;8.928;2022-07-17T02:36:14;72128.75;;;-145.69;96.91
1726;BME280;41776;48.260;8.928;2022-07-17T02:38:40;72122.78;;;-145.69;98.10
1726;BME280;41776;48.260;8.928;2022-07-17T02:41:07;72132.75;;;-145.69;100.00
1726;BME280;41776;48.260;8.928;2022-07-17T02:43:34;72132.75;;;-145.69;100.00
1726;BME280;41776;48.260;8.928;2022-07-17T02:46:01;72140.69;;;-145.69;100.00
1726;BME280;41776;48.260;8.928;2022-07-17T02:48:29;72144.69;;;-145.69;100.00
1726;BME280;41776;48.260;8.928;2022-07-17T02:50:55;72150.66;;;-145.69;100.00
1726;BME280;41776;48.260;8.928;2022-07-17T02:53:22;72162.59;;;-145.69;100.00
1726;BME280;41776;48.260;8.928;2022-07-17T02:55:48;72158.63;;;-145.69;100.00
1726;BME280;41776;48.260;8.928;2022-07-17T02:58:15;72152.66;;;-145.69;100.00
1726;BME280;41776;48.260;8.928;2022-07-17T03:00:41;72138.72;;;-145.69;100.00
1726;BME280;41776;48.260;8.928;2022-07-17T03:03:08;72142.69;;;-145.69;100.00
1726;BME280;41776;48.260;8.928;2022-07-17T03:05:36;72146.69;;;-145.69;100.00
1726;BME280;41776;48.260;8.928;2022-07-17T03:08:02;72160.59;;;-145.69;100.00
1726;BME280;41776;48.260;8.928;2022-07-17T03:10:29;72170.56;;;-145.69;100.00
1726;BME280;41776;48.260;8.928;2022-07-17T03:12:56;72172.53;;;-145.69;100.00
1726;BME280;41776;48.260;8.928;2022-07-17T03:15:22;72178.53;;;-145.69;100.00
1726;BME280;41776;48.260;8.928;2022-07-17T03:17:49;72188.47;;;-145.69;100.00
1726;BME280;41776;48.260;8.928;2022-07-17T03:20:15;72194.44;;;-145.69;100.00
1726;BME280;41776;48.260;8.928;2022-07-17T03:22:43;72198.41;;;-145.69;100.00
1726;BME280;41776;48.260;8.928;2022-07-17T03:25:09;72180.50;;;-145.69;100.00
1726;BME280;41776;48.260;8.928;2022-07-17T03:27:36;72166.56;;;-145.69;100.00
1726;BME280;41776;48.260;8.928;2022-07-17T03:30:04;72174.53;;;-145.69;100.00
1726;BME280;41776;48.260;8.928;2022-07-17T03:32:30;72170.56;;;-145.69;100.00
1726;BME280;41776;48.260;8.928;2022-07-17T03:34:57;72162.59;;;-145.69;100.00
1726;BME280;41776;48.260;8.928;2022-07-17T03:37:24;72178.53;;;-145.69;100.00
1726;BME280;41776;48.260;8.928;2022-07-17T03:39:51;72170.56;;;-145.69;100.00
1726;BME280;41776;48.260;8.928;2022-07-17T03:42:18;72158.63;;;-145.69;100.00
1726;BME280;41776;48.260;8.928;2022-07-17T03:44:44;72138.72;;;-145.69;100.00
1726;BME280;41776;48.260;8.928;2022-07-17T03:47:11;72130.75;;;-145.69;99.64
1726;BME280;41776;48.260;8.928;2022-07-17T03:49:37;72150.66;;;-145.69;100.00
1726;BME280;41776;48.260;8.928;2022-07-17T03:52:04;72160.59;;;-145.69;100.00
1726;BME280;41776;48.260;8.928;2022-07-17T03:54:30;72134.72;;;-145.69;100.00
1726;BME280;41776;48.260;8.928;2022-07-17T03:56:58;72114.81;;;-145.69;100.00
1726;BME280;41776;48.260;8.928;2022-07-17T03:59:25;72108.84;;;-145.69;100.00
1726;BME280;41776;48.260;8.928;2022-07-17T04:01:51;72118.81;;;-145.69;100.00
1726;BME280;41776;48.260;8.928;2022-07-17T04:04:19;72116.81;;;-145.69;100.00
1726;BME280;41776;48.260;8.928;2022-07-17T04:06:45;72116.81;;;-145.69;100.00
1726;BME280;41776;48.260;8.928;2022-07-17T04:09:11;72100.91;;;-145.69;100.00
1726;BME280;41776;48.260;8.928;2022-07-17T04:11:38;72106.88;;;-145.69;100.00
1726;BME280;41776;48.260;8.928;2022-07-17T04:14:06;72122.78;;;-145.69;100.00
1726;BME280;41776;48.260;8.928;2022-07-17T04:16:32;72122.78;;;-145.69;100.00
1726;BME280;41776;48.260;8.928;2022-07-17T04:18:58;72110.84;;;-145.69;100.00
1726;BME280;41776;48.260;8.928;2022-07-17T04:21:25;72090.94;;;-145.69;100.00
1726;BME280;41776;48.260;8.928;2022-07-17T04:23:51;72102.88;;;-145.69;100.00
1726;BME280;41776;48.260;8.928;2022-07-17T04:26:18;72104.88;;;-145.69;100.00
1726;BME280;41776;48.260;8.928;2022-07-17T04:28:44;72096.91;;;-145.69;100.00
1726;BME280;41776;48.260;8.928;2022-07-17T04:31:13;72102.88;;;-145.69;100.00
1726;BME280;41776;48.260;8.928;2022-07-17T04:33:39;72079.00;;;-145.69;98.46
1726;BME280;41776;48.260;8.928;2022-07-17T04:36:05;72075.03;;;-145.69;100.00
1726;BME280;41776;48.260;8.928;2022-07-17T04:38:32;72071.03;;;-145.69;100.00
1726;BME280;41776;48.260;8.928;2022-07-17T04:40:58;72067.06;;;-145.69;100.00
1726;BME280;41776;48.260;8.928;2022-07-17T04:43:25;72086.97;;;-145.69;100.00
1726;BME280;41776;48.260;8.928;2022-07-17T04:45:51;72090.94;;;-145.69;100.00
1726;BME280;41776;48.260;8.928;2022-07-17T04:48:19;72098.91;;;-145.69;100.00
1726;BME280;41776;48.260;8.928;2022-07-17T04:50:45;72102.88;;;-145.69;100.00
1726;BME280;41776;48.260;8.928;2022-07-17T04:53:12;72098.91;;;-145.69;100.00
1726;BME280;41776;48.260;8.928;2022-07-17T04:55:38;72094.94;;;-145.69;100.00
1726;BME280;41776;48.260;8.928;2022-07-17T04:58:05;72092.94;;;-145.69;100.00
1726;BME280;41776;48.260;8.928;2022-07-17T05:00:31;72075.03;;;-145.69;100.00
1726;BME280;41776;48.260;8.928;2022-07-17T05:02:58;72069.06;;;-145.69;100.00
1726;BME280;41776;48.260;8.928;2022-07-17T05:05:25;72051.16;;;-145.69;98.70
1726;BME280;41776;48.260;8.928;2022-07-17T05:07:52;72035.22;;;-145.69;97.18
1726;BME280;41776;48.260;8.928;2022-07-17T05:10:18;72019.31;;;-145.69;96.36
1726;BME280;41776;48.260;8.928;2022-07-17T05:12:45;72013.31;;;-145.69;95.05
1726;BME280;41776;48.260;8.928;2022-07-17T05:15:11;71989.44;;;-145.69;92.22
1726;BME280;41776;48.260;8.928;2022-07-17T05:17:38;71981.50;;;-145.69;91.65
1726;BME280;41776;48.260;8.928;2022-07-17T05:20:06;71977.50;;;-145.69;91.66
1726;BME280;41776;48.260;8.928;2022-07-17T05:22:34;71967.56;;;-145.69;94.13
1726;BME280;41776;48.260;8.928;2022-07-17T05:25:01;71957.59;;;-145.69;93.58
1726;BME280;41776;48.260;8.928;2022-07-17T05:27:27;71947.66;;;-145.69;95.55
1726;BME280;41776;48.260;8.928;2022-07-17T05:29:54;71931.72;;;-145.69;93.75
1726;BME280;41776;48.260;8.928;2022-07-17T05:32:20;71919.78;;;-145.69;92.85
1726;BME280;41776;48.260;8.928;2022-07-17T05:34:47;71903.88;;;-145.69;89.66
1726;BME280;41776;48.260;8.928;2022-07-17T05:37:13;71889.94;;;-145.69;89.75
1726;BME280;41776;48.260;8.928;2022-07-17T05:39:41;71872.03;;;-145.69;88.18
1726;BME280;41776;48.260;8.928;2022-07-17T05:42:07;71836.22;;;-145.69;86.14
1726;BME280;41776;48.260;8.928;2022-07-17T05:44:34;71796.41;;;-145.69;84.83
1726;BME280;41776;48.260;8.928;2022-07-17T05:47:00;71738.69;;;-145.69;81.66
1726;BME280;41776;48.260;8.928;2022-07-17T05:49:27;71637.19;;;-145.69;76.00
1726;BME280;41776;48.260;8.928;2022-07-17T05:51:53;71517.81;;;-145.69;73.84
1726;BME280;41776;48.260;8.928;2022-07-17T05:54:19;71489.94;;;-145.69;71.67
1726;BME280;41776;48.260;8.928;2022-07-17T05:56:47;71394.44;;;-145.69;68.99
1726;BME280;41776;48.260;8.928;2022-07-17T05:59:14;71302.91;;;-145.69;63.82
1726;BME280;41776;48.260;8.928;2022-07-17T06:01:40;71207.38;;;-145.69;58.08
1726;BME280;41776;48.260;8.928;2022-07-17T06:04:07;71215.34;;;-145.69;61.46
1726;BME280;41776;48.260;8.928;2022-07-17T06:06:33;71205.41;;;-145.69;60.26
1726;BME280;41776;48.260;8.928;2022-07-17T06:08:59;71265.09;;;-145.69;61.51
1726;BME280;41776;48.260;8.928;2022-07-17T06:11:26;71314.84;;;-145.69;59.89
1726;BME280;41776;48.260;8.928;2022-07-17T06:13:54;71269.06;;;-145.69;58.25
1726;BME280;41776;48.260;8.928;2022-07-17T06:16:20;71285.00;;;-145.69;58.39
1726;BME280;41776;48.260;8.928;2022-07-17T06:18:47;71207.38;;;-145.69;60.35
1726;BME280;41776;48.260;8.928;2022-07-17T06:21:13;71263.09;;;-145.69;57.46
1726;BME280;41776;48.260;8.928;2022-07-17T06:23:40;71271.06;;;-145.69;56.70
1726;BME280;41776;48.260;8.928;2022-07-17T06:26:06;71225.31;;;-145.69;60.92
1726;BME280;41776;48.260;8.928;2022-07-17T06:28:32;71249.19;;;-145.69;57.33
1726;BME280;41776;48.260;8.928;2022-07-17T06:31:00;71207.38;;;-145.69;58.45
1726;BME280;41776;48.260;8.928;2022-07-17T06:33:27;71177.53;;;-145.69;56.19
1726;BME280;41776;48.260;8.928;2022-07-17T06:35:53;71169.59;;;-145.69;55.40
1726;BME280;41776;48.260;8.928;2022-07-17T06:38:20;71149.69;;;-145.69;55.31
1726;BME280;41776;48.260;8.928;2022-07-17T06:40:47;71145.72;;;-145.69;56.34
1726;BME280;41776;48.260;8.928;2022-07-17T06:43:13;71099.94;;;-145.69;57.76
1726;BME280;41776;48.260;8.928;2022-07-17T06:45:40;71171.56;;;-145.69;52.65
1726;BME280;41776;48.260;8.928;2022-07-17T06:48:07;71167.59;;;-145.69;52.07
1726;BME280;41776;48.260;8.928;2022-07-17T06:50:34;71123.81;;;-145.69;52.54
1726;BME280;41776;48.260;8.928;2022-07-17T06:53:00;71117.84;;;-145.69;53.15
1726;BME280;41776;48.260;8.928;2022-07-17T06:55:27;71103.94;;;-145.69;53.18
1726;BME280;41776;48.260;8.928;2022-07-17T06:57:53;71111.88;;;-145.69;49.73
1726;BME280;41776;48.260;8.928;2022-07-17T07:00:20;71107.91;;;-145.69;49.84
1726;BME280;41776;48.260;8.928;2022-07-17T07:02:46;71095.97;;;-145.69;49.84
1726;BME280;41776;48.260;8.928;2022-07-17T07:05:14;71095.97;;;-145.69;49.78
1726;BME280;41776;48.260;8.928;2022-07-17T07:07:40;71101.94;;;-145.69;47.45
1726;BME280;41776;48.260;8.928;2022-07-17T07:10:08;71082.03;;;-145.69;47.60
1726;BME280;41776;48.260;8.928;2022-07-17T07:12:34;71056.16;;;-145.69;47.93
1726;BME280;41776;48.260;8.928;2022-07-17T07:15:01;71060.16;;;-145.69;47.67
1726;BME280;41776;48.260;8.928;2022-07-17T07:17:28;71064.13;;;-145.69;46.56
1726;BME280;41776;48.260;8.928;2022-07-17T07:19:56;71046.22;;;-145.69;47.07
1726;BME280;41776;48.260;8.928;2022-07-17T07:22:24;71036.28;;;-145.69;46.25
1726;BME280;41776;48.260;8.928;2022-07-17T07:24:51;71012.41;;;-145.69;46.78
1726;BME280;41776;48.260;8.928;2022-07-17T07:27:17;71026.31;;;-145.69;47.00
1726;BME280;41776;48.260;8.928;2022-07-17T07:29:43;71010.41;;;-145.69;48.74
1726;BME280;41776;48.260;8.928;2022-07-17T07:32:10;71012.41;;;-145.69;46.21
1726;BME280;41776;48.260;8.928;2022-07-17T07:34:36;71020.34;;;-145.69;45.59
1726;BME280;41776;48.260;8.928;2022-07-17T07:37:03;71000.47;;;-145.69;46.28
1726;BME280;41776;48.260;8.928;2022-07-17T07:39:30;71008.41;;;-145.69;42.60
1726;BME280;41776;48.260;8.928;2022-07-17T07:41:57;70980.56;;;-145.69;45.73
1726;BME280;41776;48.260;8.928;2022-07-17T07:44:25;70980.56;;;-145.69;49.68
1726;BME280;41776;48.260;8.928;2022-07-17T07:46:51;71020.34;;;-145.69;51.32
1726;BME280;41776;48.260;8.928;2022-07-17T07:49:18;71016.38;;;-145.69;51.20
1726;BME280;41776;48.260;8.928;2022-07-17T07:51:44;71026.31;;;-145.69;51.13
1726;BME280;41776;48.260;8.928;2022-07-17T07:54:11;71048.22;;;-145.69;52.32
1726;BME280;41776;48.260;8.928;2022-07-17T07:56:39;71048.22;;;-145.69;54.16
1726;BME280;41776;48.260;8.928;2022-07-17T07:59:05;71036.28;;;-145.69;52.27
1726;BME280;41776;48.260;8.928;2022-07-17T08:01:32;71042.25;;;-145.69;51.88
1726;BME280;41776;48.260;8.928;2022-07-17T08:03:58;71060.16;;;-145.69;55.40
1726;BME280;41776;48.260;8.928;2022-07-17T08:06:25;71044.22;;;-145.69;52.83
1726;BME280;41776;48.260;8.928;2022-07-17T08:08:51;71036.28;;;-145.69;51.69
1726;BME280;41776;48.260;8.928;2022-07-17T08:11:18;71024.34;;;-145.69;52.41
1726;BME280;41776;48.260;8.928;2022-07-17T08:13:45;71008.41;;;-145.69;50.22
1726;BME280;41776;48.260;8.928;2022-07-17T08:16:12;70990.50;;;-145.69;48.23
1726;BME280;41776;48.260;8.928;2022-07-17T08:18:38;70964.66;;;-145.69;47.51
1726;BME280;41776;48.260;8.928;2022-07-17T08:21:05;70936.78;;;-145.69;44.50
1726;BME280;41776;48.260;8.928;2022-07-17T08:23:32;70904.97;;;-145.69;47.03
1726;BME280;41776;48.260;8.928;2022-07-17T08:25:58;70891.03;;;-145.69;45.19
1726;BME280;41776;48.260;8.928;2022-07-17T08:28:25;70881.09;;;-145.69;45.16
1726;BME280;41776;48.260;8.928;2022-07-17T08:30:52;70857.22;;;-145.69;44.70
1726;BME280;41776;48.260;8.928;2022-07-17T08:33:19;70863.19;;;-145.69;47.53
1726;BME280;41776;48.260;8.928;2022-07-17T08:35:46;70881.09;;;-145.69;44.37
1726;BME280;41776;48.260;8.928;2022-07-17T08:38:12;70873.13;;;-145.69;46.80
1726;BME280;41776;48.260;8.928;2022-07-17T08:40:39;70885.06;;;-145.69;47.73
1726;BME280;41776;48.260;8.928;2022-07-17T08:43:09;70875.13;;;-145.69;44.28
1726;BME280;41776;48.260;8.928;2022-07-17T08:45:41;70867.16;;;-145.69;46.79
1726;BME280;41776;48.260;8.928;2022-07-17T08:48:13;70881.09;;;-145.69;46.96
1726;BME280;41776;48.260;8.928;2022-07-17T08:50:41;70885.06;;;-145.69;46.38
1726;BME280;41776;48.260;8.928;2022-07-17T08:53:08;70877.09;;;-145.69;46.84
1726;BME280;41776;48.260;8.928;2022-07-17T08:55:36;70883.06;;;-145.69;47.44
1726;BME280;41776;48.260;8.928;2022-07-17T08:58:03;70897.00;;;-145.69;45.28
1726;BME280;41776;48.260;8.928;2022-07-17T09:00:30;70922.88;;;-145.69;45.37
1726;BME280;41776;48.260;8.928;2022-07-17T09:02:58;70908.94;;;-145.69;46.13
1726;BME280;41776;48.260;8.928;2022-07-17T09:05:29;70914.91;;;-145.69;45.08
1726;BME280;41776;48.260;8.928;2022-07-17T09:07:56;70891.03;;;-145.69;47.32
1726;BME280;41776;48.260;8.928;2022-07-17T09:10:34;70895.00;;;-145.69;46.55
1726;BME280;41776;48.260;8.928;2022-07-17T09:13:01;70893.03;;;-145.69;45.35
1726;BME280;41776;48.260;8.928;2022-07-17T09:15:28;70879.09;;;-145.69;45.93
1726;BME280;41776;48.260;8.928;2022-07-17T09:17:55;70904.97;;;-145.69;47.17
1726;BME280;41776;48.260;8.928;2022-07-17T09:20:35;70881.09;;;-145.69;46.71
1726;BME280;41776;48.260;8.928;2022-07-17T09:23:04;70869.16;;;-145.69;45.43
1726;BME280;41776;48.260;8.928;2022-07-17T09:25:35;70865.16;;;-145.69;45.72
1726;BME280;41776;48.260;8.928;2022-07-17T09:28:06;70857.22;;;-145.69;45.28
1726;BME280;41776;48.260;8.928;2022-07-17T09:30:39;70859.19;;;-145.69;44.92
1726;BME280;41776;48.260;8.928;2022-07-17T09:33:12;70863.19;;;-145.69;43.81
1726;BME280;41776;48.260;8.928;2022-07-17T09:35:45;70853.22;;;-145.69;42.49
1726;BME280;41776;48.260;8.928;2022-07-17T09:38:13;70861.19;;;-145.69;43.06
1726;BME280;41776;48.260;8.928;2022-07-17T09:41:01;70855.22;;;-145.69;42.97
1726;BME280;41776;48.260;8.928;2022-07-17T09:43:46;70877.09;;;-145.69;43.31
1726;BME280;41776;48.260;8.928;2022-07-17T09:46:15;70877.09;;;-145.69;44.75
1726;BME280;41776;48.260;8.928;2022-07-17T09:48:43;70881.09;;;-145.69;43.30
1726;BME280;41776;48.260;8.928;2022-07-17T09:51:16;70881.09;;;-145.69;43.61
1726;BME280;41776;48.260;8.928;2022-07-17T09:53:48;70879.09;;;-145.69;45.01
1726;BME280;41776;48.260;8.928;2022-07-17T09:56:18;70857.22;;;-145.69;44.78
1726;BME280;41776;48.260;8.928;2022-07-17T09:58:47;70869.16;;;-145.69;45.68
1726;BME280;41776;48.260;8.928;2022-07-17T10:01:15;70851.25;;;-145.69;46.03
1726;BME280;41776;48.260;8.928;2022-07-17T10:03:42;70857.22;;;-145.69;43.94
1726;BME280;41776;48.260;8.928;2022-07-17T10:06:10;70825.38;;;-145.69;43.50
1726;BME280;41776;48.260;8.928;2022-07-17T10:08:38;70817.41;;;-145.69;45.81
1726;BME280;41776;48.260;8.928;2022-07-17T10:11:05;70817.41;;;-145.69;43.68
1726;BME280;41776;48.260;8.928;2022-07-17T10:13:32;70829.34;;;-145.69;46.38
1726;BME280;41776;48.260;8.928;2022-07-17T10:15:59;70813.44;;;-145.69;44.14
1726;BME280;41776;48.260;8.928;2022-07-17T10:18:34;70795.53;;;-145.69;44.45
1726;BME280;41776;48.260;8.928;2022-07-17T10:21:12;70773.66;;;-145.69;43.51
1726;BME280;41776;48.260;8.928;2022-07-17T10:23:41;70773.66;;;-145.69;43.49
1726;BME280;41776;48.260;8.928;2022-07-17T10:26:08;70745.78;;;-145.69;43.56
1726;BME280;41776;48.260;8.928;2022-07-17T10:31:08;70737.84;;;-145.69;44.25
1726;BME280;41776;48.260;8.928;2022-07-17T10:33:36;70741.81;;;-145.69;42.62
1726;BME280;41776;48.260;8.928;2022-07-17T10:36:03;70753.75;;;-145.69;42.64
1726;BME280;41776;48.260;8.928;2022-07-17T10:38:41;70747.78;;;-145.69;42.45
1726;BME280;41776;48.260;8.928;2022-07-17T10:41:08;70767.69;;;-145.69;41.84
1726;BME280;41776;48.260;8.928;2022-07-17T10:43:42;70745.78;;;-145.69;42.72
1726;BME280;41776;48.260;8.928;2022-07-17T10:46:09;70713.97;;;-145.69;42.26
1726;BME280;41776;48.260;8.928;2022-07-17T10:48:39;70708.00;;;-145.69;41.32
1726;BME280;41776;48.260;8.928;2022-07-17T10:51:06;70702.03;;;-145.69;41.77
1726;BME280;41776;48.260;8.928;2022-07-17T10:53:33;70708.00;;;-145.69;41.82
1726;BME280;41776;48.260;8.928;2022-07-17T10:56:03;70684.13;;;-145.69;43.72
1726;BME280;41776;48.260;8.928;2022-07-17T10:58:32;70686.09;;;-145.69;42.49
1726;BME280;41776;48.260;8.928;2022-07-17T11:01:02;70674.16;;;-145.69;43.48
1726;BME280;41776;48.260;8.928;2022-07-17T11:03:30;70668.19;;;-145.69;41.59
1726;BME280;41776;48.260;8.928;2022-07-17T11:06:11;70674.16;;;-145.69;41.75
1726;BME280;41776;48.260;8.928;2022-07-17T11:08:45;70674.16;;;-145.69;40.45
1726;BME280;41776;48.260;8.928;2022-07-17T11:11:14;70650.28;;;-145.69;41.85
1726;BME280;41776;48.260;8.928;2022-07-17T11:13:41;70622.44;;;-145.69;41.53
1726;BME280;41776;48.260;8.928;2022-07-17T11:16:09;70594.59;;;-145.69;41.86
1726;BME280;41776;48.260;8.928;2022-07-17T11:18:36;70608.53;;;-145.69;42.37
1726;BME280;41776;48.260;8.928;2022-07-17T11:21:04;70598.56;;;-145.69;41.70
1726;BME280;41776;48.260;8.928;2022-07-17T11:23:32;70618.47;;;-145.69;40.96
1726;BME280;41776;48.260;8.928;2022-07-17T11:26:01;70588.63;;;-145.69;41.21
1726;BME280;41776;48.260;8.928;2022-07-17T11:28:37;70594.59;;;-145.69;42.23
1726;BME280;41776;48.260;8.928;2022-07-17T11:31:15;70574.69;;;-145.69;41.79
1726;BME280;41776;48.260;8.928;2022-07-17T11:33:50;70546.84;;;-145.69;40.63
1726;BME280;41776;48.260;8.928;2022-07-17T11:36:22;70558.78;;;-145.69;40.21
1726;BME280;41776;48.260;8.928;2022-07-17T11:38:48;70548.84;;;-145.69;39.60
1726;BME280;41776;48.260;8.928;2022-07-17T11:41:15;70515.00;;;-145.69;42.13
1726;BME280;41776;48.260;8.928;2022-07-17T11:43:44;70548.84;;;-145.69;40.42
1726;BME280;41776;48.260;8.928;2022-07-17T11:46:12;70554.81;;;-145.69;38.17
1726;BME280;41776;48.260;8.928;2022-07-17T11:48:40;70544.84;;;-145.69;37.55
1726;BME280;41776;48.260;8.928;2022-07-17T11:51:07;70538.88;;;-145.69;39.57
1726;BME280;41776;48.260;8.928;2022-07-17T11:53:35;70528.94;;;-145.69;37.77
1726;BME280;41776;48.260;8.928;2022-07-17T11:56:02;70509.03;;;-145.69;38.73
1726;BME280;41776;48.260;8.928;2022-07-17T11:58:40;70520.97;;;-145.69;39.03
1726;BME280;41776;48.260;8.928;2022-07-17T12:01:09;70524.97;;;-145.69;37.75
1726;BME280;41776;48.260;8.928;2022-07-17T12:03:35;70503.06;;;-145.69;39.05
1726;BME280;41776;48.260;8.928;2022-07-17T12:06:02;70489.16;;;-145.69;37.14
1726;BME280;41776;48.260;8.928;2022-07-17T12:08:28;70487.16;;;-145.69;37.36
1726;BME280;41776;48.260;8.928;2022-07-17T12:11:03;70451.34;;;-145.69;37.65
1726;BME280;41776;48.260;8.928;2022-07-17T12:13:38;70417.53;;;-145.69;38.12
1726;BME280;41776;48.260;8.928;2022-07-17T12:16:20;70425.50;;;-145.69;37.19
1726;BME280;41776;48.260;8.928;2022-07-17T12:18:55;70459.31;;;-145.69;35.67
1726;BME280;41776;48.260;8.928;2022-07-17T12:21:27;70451.34;;;-145.69;38.55
1726;BME280;41776;48.260;8.928;2022-07-17T12:23:59;70435.44;;;-145.69;36.40
1726;BME280;41776;48.260;8.928;2022-07-17T12:26:26;70439.41;;;-145.69;35.38
1726;BME280;41776;48.260;8.928;2022-07-17T12:28:52;70417.53;;;-145.69;36.55
1726;BME280;41776;48.260;8.928;2022-07-17T12:31:21;70433.44;;;-145.69;35.47
1726;BME280;41776;48.260;8.928;2022-07-17T12:33:50;70387.69;;;-145.69;36.39
1726;BME280;41776;48.260;8.928;2022-07-17T12:36:17;70365.81;;;-145.69;35.91
1726;BME280;41776;48.260;8.928;2022-07-17T12:38:43;70347.91;;;-145.69;37.92
1726;BME280;41776;48.260;8.928;2022-07-17T12:41:10;70347.91;;;-145.69;36.11
1726;BME280;41776;48.260;8.928;2022-07-17T12:43:37;70316.06;;;-145.69;35.31
1726;BME280;41776;48.260;8.928;2022-07-17T12:46:04;70288.22;;;-145.69;35.47
1726;BME280;41776;48.260;8.928;2022-07-17T12:48:32;70300.16;;;-145.69;36.44
1726;BME280;41776;48.260;8.928;2022-07-17T12:50:58;70278.28;;;-145.69;36.55
1726;BME280;41776;48.260;8.928;2022-07-17T12:53:25;70282.25;;;-145.69;35.36